createdAt,value
2023-02-28T00:04:58.914Z,18.93
2023-02-28T00:09:58.227Z,17.55
2023-02-28T00:14:57.527Z,17.66
2023-02-28T00:19:57.838Z,17.97
2023-02-28T00:24:57.159Z,18.08
2023-02-28T00:29:56.480Z,18.49
2023-02-28T00:34:54.821Z,18.71
2023-02-28T00:39:53.947Z,19.12
2023-02-28T00:44:54.280Z,19.73
2023-02-28T00:49:53.606Z,20.05
2023-02-28T00:54:50.926Z,20.36
2023-02-28T00:59:52.273Z,20.87
2023-02-28T01:04:50.676Z,21.19
2023-02-28T01:09:49.775Z,21.51
2023-02-28T01:14:48.962Z,21.72
2023-02-28T01:19:50.132Z,22.13
2023-02-28T01:24:48.312Z,22.24
2023-02-28T01:29:46.527Z,22.35
2023-02-28T01:34:45.713Z,22.66
2023-02-28T01:39:45.874Z,22.88
2023-02-28T01:44:44.033Z,23.19
2023-02-28T01:49:43.179Z,23.41
2023-02-28T01:54:42.368Z,23.41
2023-02-28T01:59:41.545Z,23.62
2023-02-28T02:04:41.721Z,23.73
2023-02-28T02:09:39.910Z,24.04
2023-02-28T02:14:39.084Z,24.14
2023-02-28T02:19:39.299Z,24.45
2023-02-28T02:24:36.474Z,24.57
2023-02-28T02:29:38.668Z,24.68
2023-02-28T02:34:35.842Z,24.78
2023-02-28T02:39:35.041Z,24.89
2023-02-28T02:44:35.270Z,24.99
2023-02-28T02:49:34.486Z,25.10
2023-02-28T02:54:32.688Z,25.20
2023-02-28T02:59:31.891Z,25.21
2023-02-28T03:04:31.085Z,25.32
2023-02-28T03:09:30.248Z,25.32
2023-02-28T03:14:29.417Z,25.43
2023-02-28T03:19:28.608Z,25.53
2023-02-28T03:24:27.768Z,25.64
2023-02-28T03:29:27.961Z,25.54
2023-02-28T03:34:26.193Z,25.84
2023-02-28T03:39:25.364Z,25.85
2023-02-28T03:44:25.546Z,25.95
2023-02-28T03:49:24.755Z,25.95
2023-02-28T03:54:22.930Z,26.07
2023-02-28T03:59:22.225Z,26.07
2023-02-28T04:04:22.560Z,26.17
2023-02-28T04:09:20.691Z,26.18
2023-02-28T04:14:21.009Z,26.28
2023-02-28T04:19:19.329Z,26.28
2023-02-28T04:24:18.505Z,26.28
2023-02-28T04:29:17.638Z,26.28
2023-02-28T04:34:16.981Z,26.18
2023-02-28T04:39:17.157Z,26.18
2023-02-28T04:44:17.345Z,26.08
2023-02-28T04:49:14.456Z,26.08
2023-02-28T04:54:14.581Z,25.98
2023-02-28T04:59:13.773Z,26.08
2023-02-28T05:04:12.924Z,26.09
2023-02-28T05:09:12.260Z,26.20
2023-02-28T05:14:10.372Z,26.20
2023-02-28T05:19:09.755Z,26.20
2023-02-28T05:24:12.036Z,26.20
2023-02-28T05:29:08.161Z,26.29
2023-02-28T05:34:07.497Z,26.41
2023-02-28T05:39:05.798Z,26.31
2023-02-28T05:44:05.991Z,26.51
2023-02-28T05:49:07.240Z,26.31
2023-02-28T05:54:04.458Z,26.41
2023-02-28T05:59:03.620Z,25.05
2023-02-28T06:04:03.726Z,24.31
2023-02-28T06:09:03.028Z,23.91
2023-02-28T06:14:02.375Z,23.80
2023-02-28T06:19:01.683Z,23.71
2023-02-28T06:23:59.980Z,24.12
2023-02-28T06:28:58.324Z,24.43
2023-02-28T06:33:58.446Z,24.43
2023-02-28T06:38:59.773Z,24.55
2023-02-28T06:43:57.113Z,24.75
2023-02-28T06:48:56.232Z,25.06
2023-02-28T06:53:55.383Z,25.07
2023-02-28T06:58:54.535Z,25.27
2023-02-28T07:03:53.897Z,25.38
2023-02-28T07:08:53.036Z,25.59
2023-02-28T07:13:53.388Z,25.49
2023-02-28T07:18:51.532Z,25.49
2023-02-28T07:23:50.657Z,23.82
2023-02-28T07:28:50.960Z,22.47
2023-02-28T07:33:48.292Z,21.96
2023-02-28T07:38:50.606Z,21.87
2023-02-28T07:43:50.980Z,21.77
2023-02-28T07:48:47.074Z,21.57
2023-02-28T07:53:46.386Z,21.47
2023-02-28T07:58:45.669Z,20.92
2023-02-28T08:03:46.021Z,17.50
2023-02-28T08:08:44.331Z,16.06
2023-02-28T08:13:43.674Z,15.45
2023-02-28T08:18:43.815Z,15.14
2023-02-28T08:23:43.976Z,15.53
2023-02-28T08:28:43.070Z,15.64
2023-02-28T08:33:40.395Z,16.27
2023-02-28T08:38:41.716Z,16.47
2023-02-28T08:43:39.029Z,16.68
2023-02-28T08:48:38.334Z,17.20
2023-02-28T08:53:37.637Z,17.62
2023-02-28T08:58:36.967Z,17.94
2023-02-28T09:03:36.324Z,18.45
2023-02-28T09:08:35.501Z,18.67
2023-02-28T09:13:35.822Z,19.19
2023-02-28T09:18:34.127Z,19.40
2023-02-28T09:23:38.552Z,19.71
2023-02-28T09:28:33.641Z,20.23
2023-02-28T09:33:32.939Z,20.34
2023-02-28T09:38:31.210Z,20.65
2023-02-28T09:43:30.480Z,20.97
2023-02-28T09:48:31.772Z,21.08
2023-02-28T09:53:29.009Z,21.29
2023-02-28T09:58:29.308Z,21.29
2023-02-28T10:03:30.701Z,21.60
2023-02-28T10:08:26.778Z,21.51
2023-02-28T10:13:26.074Z,22.01
2023-02-28T10:18:25.394Z,21.92
2023-02-28T10:23:25.701Z,21.81
2023-02-28T10:28:24.055Z,21.08
2023-02-28T10:33:23.250Z,19.73
2023-02-28T10:38:23.418Z,18.58
2023-02-28T10:43:22.756Z,17.96
2023-02-28T10:48:20.908Z,17.96
2023-02-28T10:53:20.039Z,18.38
2023-02-28T10:58:19.357Z,18.48
2023-02-28T11:03:18.692Z,18.79
2023-02-28T11:08:19.814Z,19.31
2023-02-28T11:13:19.110Z,19.42
2023-02-28T11:18:18.082Z,20.14
2023-02-28T11:23:15.821Z,20.45
2023-02-28T11:28:14.984Z,20.36
2023-02-28T11:33:14.120Z,20.76
2023-02-28T11:38:13.261Z,20.87
2023-02-28T11:43:12.695Z,20.98
2023-02-28T11:48:11.834Z,21.09
2023-02-28T11:53:11.187Z,21.60
2023-02-28T11:58:10.354Z,21.71
2023-02-28T12:03:11.449Z,21.39
2023-02-28T12:08:10.762Z,20.34
2023-02-28T12:13:08.042Z,18.78
2023-02-28T12:18:08.363Z,17.85
2023-02-28T12:23:06.657Z,18.27
2023-02-28T12:28:05.983Z,18.79
2023-02-28T12:33:05.115Z,18.90
2023-02-28T12:38:05.268Z,19.21
2023-02-28T12:43:05.403Z,19.62
2023-02-28T12:48:04.754Z,19.73
2023-02-28T12:53:03.056Z,19.93
2023-02-28T12:58:01.258Z,20.14
2023-02-28T13:03:01.824Z,20.56
2023-02-28T13:07:59.682Z,20.76
2023-02-28T13:12:59.915Z,21.17
2023-02-28T13:17:59.105Z,21.19
2023-02-28T13:22:57.315Z,21.29
2023-02-28T13:27:55.625Z,21.50
2023-02-28T13:32:57.831Z,21.70
2023-02-28T13:37:56.019Z,21.60
2023-02-28T13:42:55.220Z,21.60
2023-02-28T13:47:54.416Z,20.98
2023-02-28T13:52:53.632Z,20.76
2023-02-28T13:57:51.806Z,20.54
2023-02-28T14:02:52.486Z,20.45
2023-02-28T14:07:52.267Z,20.45
2023-02-28T14:12:51.029Z,20.45
2023-02-28T14:17:47.848Z,20.87
2023-02-28T14:22:48.984Z,20.67
2023-02-28T14:27:48.156Z,20.98
2023-02-28T14:32:47.346Z,21.19
2023-02-28T14:37:48.797Z,21.09
2023-02-28T14:42:44.764Z,21.60
2023-02-28T14:47:45.022Z,21.48
2023-02-28T14:52:43.293Z,21.17
2023-02-28T14:57:42.620Z,19.82
2023-02-28T15:02:41.937Z,19.40
2023-02-28T15:07:40.262Z,19.31
2023-02-28T15:12:40.567Z,19.42
2023-02-28T15:17:39.905Z,19.73
2023-02-28T15:22:40.204Z,20.03
2023-02-28T15:27:39.523Z,20.14
2023-02-28T15:32:37.892Z,20.45
2023-02-28T15:37:38.112Z,20.56
2023-02-28T15:42:36.210Z,20.76
2023-02-28T15:47:35.576Z,21.08
2023-02-28T15:52:34.683Z,21.19
2023-02-28T15:57:35.009Z,21.40
2023-02-28T16:02:33.353Z,21.51
2023-02-28T16:07:32.333Z,21.91
2023-02-28T16:12:32.502Z,21.39
2023-02-28T16:17:30.680Z,20.75
2023-02-28T16:22:30.841Z,19.21
2023-02-28T16:27:28.941Z,18.06
2023-02-28T16:32:28.321Z,18.17
2023-02-28T16:37:31.591Z,18.59
2023-02-28T16:42:27.759Z,19.10
2023-02-28T16:47:26.060Z,19.62
2023-02-28T16:52:25.647Z,19.73
2023-02-28T16:57:24.613Z,20.14
2023-02-28T17:02:24.380Z,20.34
2023-02-28T17:07:23.083Z,20.56
2023-02-28T17:12:23.703Z,20.76
2023-02-28T17:17:22.642Z,20.98
2023-02-28T17:22:20.949Z,21.20
2023-02-28T17:27:20.337Z,21.51
2023-02-28T17:32:20.846Z,21.81
2023-02-28T17:37:18.991Z,21.81
2023-02-28T17:42:18.031Z,21.29
2023-02-28T17:47:18.057Z,20.45
2023-02-28T17:52:17.353Z,20.36
2023-02-28T17:57:14.528Z,20.14
2023-02-28T18:02:17.058Z,20.25
2023-02-28T18:07:13.887Z,20.36
2023-02-28T18:12:14.081Z,20.56
2023-02-28T18:17:15.298Z,20.87
2023-02-28T18:22:12.781Z,19.90
2023-02-28T18:27:10.973Z,17.21
2023-02-28T18:32:10.290Z,17.08
2023-02-28T18:37:10.155Z,17.25
2023-02-28T18:42:09.590Z,17.23
2023-02-28T18:47:07.582Z,17.65
2023-02-28T18:52:06.926Z,16.72
2023-02-28T18:57:07.432Z,16.61
2023-02-28T19:02:05.742Z,15.91
2023-02-28T19:07:06.557Z,15.51
2023-02-28T19:12:04.053Z,15.30
2023-02-28T19:17:03.036Z,15.20
2023-02-28T19:22:02.687Z,15.39
2023-02-28T19:27:02.802Z,15.50
2023-02-28T19:32:02.365Z,15.50
2023-02-28T19:37:01.530Z,15.60
2023-02-28T19:41:59.716Z,15.29
2023-02-28T19:46:58.900Z,15.30
2023-02-28T19:51:58.113Z,15.39
2023-02-28T19:56:57.327Z,15.19
2023-02-28T20:01:57.115Z,15.09
2023-02-28T20:06:56.834Z,15.09
2023-02-28T20:11:55.957Z,14.99
2023-02-28T20:16:55.475Z,14.89
2023-02-28T20:21:53.403Z,14.78
2023-02-28T20:26:52.400Z,14.78
2023-02-28T20:31:53.125Z,14.89
2023-02-28T20:36:50.305Z,14.98
2023-02-28T20:41:51.426Z,14.69
2023-02-28T20:46:49.397Z,14.98
2023-02-28T20:51:51.604Z,15.08
2023-02-28T20:56:53.147Z,14.88
2023-02-28T21:01:47.453Z,14.67
2023-02-28T21:06:48.611Z,14.98
2023-02-28T21:11:46.222Z,14.98
2023-02-28T21:16:45.214Z,14.98
2023-02-28T21:21:45.852Z,14.98
2023-02-28T21:26:44.095Z,14.47
2023-02-28T21:31:43.366Z,14.56
2023-02-28T21:36:43.277Z,14.87
2023-02-28T21:41:41.697Z,15.19
2023-02-28T21:46:40.938Z,15.28
2023-02-28T21:51:40.082Z,15.39
2023-02-28T21:56:39.449Z,14.88
2023-02-28T22:01:39.655Z,14.47
2023-02-28T22:06:38.842Z,14.78
2023-02-28T22:11:36.968Z,14.48
2023-02-28T22:16:50.370Z,14.37
2023-02-28T22:21:35.518Z,14.47
2023-02-28T22:26:33.844Z,14.79
2023-02-28T22:31:34.014Z,14.88
2023-02-28T22:36:34.172Z,14.67
2023-02-28T22:41:32.515Z,14.67
2023-02-28T22:46:32.067Z,14.67
2023-02-28T22:51:31.989Z,14.56
2023-02-28T22:56:30.560Z,14.56
2023-02-28T23:01:30.557Z,14.66
2023-02-28T23:06:29.069Z,14.75
2023-02-28T23:11:27.880Z,14.75
2023-02-28T23:16:27.215Z,14.65
2023-02-28T23:21:27.499Z,14.65
2023-02-28T23:26:26.745Z,14.86
2023-02-28T23:31:25.063Z,14.76
2023-02-28T23:36:26.348Z,14.96
2023-02-28T23:41:23.653Z,14.86
2023-02-28T23:46:22.961Z,14.86
2023-02-28T23:51:23.253Z,14.75
2023-02-28T23:56:22.534Z,14.96
